Time;durP1;ratioP1;P1;durP2;ratioP2;P2;SDS_P1;SDS_P2;PMS_P1;PMS_P2;Temp;Humidity;BMP_temperature;BMP_pressure;BME280_temperature;BME280_humidity;BME280_pressure;Samples;Min_cycle;Max_cycle;Signal;HPM_P1;HPM_P2
2019/05/21 00:00:48;;;;;;;20.7;14.75;;;;;;;11.71;100;94001.05;;;;
2019/05/21 00:01:50;;;;;;;20.7;14.75;;;;;;;11.71;100;94001.05;;;;
2019/05/21 00:02:51;;;;;;;20.7;14.75;;;;;;;11.71;100;94001.05;;;;
2019/05/21 00:03:52;;;;;;;20.7;14.75;;;;;;;11.71;100;94001.05;;;;
2019/05/21 00:04:53;;;;;;;20.7;14.75;;;;;;;11.71;100;94001.05;;;;
2019/05/21 00:05:54;;;;;;;20.7;14.75;;;;;;;11.71;100;94001.05;;;;
2019/05/21 00:06:55;;;;;;;20.7;14.75;;;;;;;11.71;100;94001.05;;;;
2019/05/21 00:07:56;;;;;;;20.7;14.75;;;;;;;11.71;100;94001.05;;;;
2019/05/21 00:08:57;;;;;;;20.7;14.75;;;;;;;11.71;100;94001.05;;;;
2019/05/21 00:09:58;;;;;;;20.7;14.75;;;;;;;11.71;100;94001.05;;;;
2019/05/21 00:10:59;;;;;;;22.85;15.55;;;;;;;11.68;100;94014.56;;;;
2019/05/21 00:12:00;;;;;;;22.85;15.55;;;;;;;11.68;100;94014.56;;;;
2019/05/21 00:13:02;;;;;;;22.85;15.55;;;;;;;11.68;100;94014.56;;;;
2019/05/21 00:14:03;;;;;;;22.85;15.55;;;;;;;11.68;100;94014.56;;;;
2019/05/21 00:15:04;;;;;;;22.85;15.55;;;;;;;11.68;100;94014.56;;;;
2019/05/21 00:16:05;;;;;;;22.85;15.55;;;;;;;11.68;100;94014.56;;;;
2019/05/21 00:17:06;;;;;;;22.85;15.55;;;;;;;11.68;100;94014.56;;;;
2019/05/21 00:18:07;;;;;;;22.85;15.55;;;;;;;11.68;100;94014.56;;;;
2019/05/21 00:19:08;;;;;;;22.85;15.55;;;;;;;11.68;100;94014.56;;;;
2019/05/21 00:20:09;;;;;;;22.85;15.55;;;;;;;11.68;100;94014.56;;;;
2019/05/21 00:21:10;;;;;;;22.85;15.55;;;;;;;11.68;100;94014.56;;;;
2019/05/21 00:22:11;;;;;;;21.8;14.3;;;;;;;11.7;100;94008.47;;;;
2019/05/21 00:23:12;;;;;;;21.8;14.3;;;;;;;11.7;100;94008.47;;;;
2019/05/21 00:24:13;;;;;;;21.8;14.3;;;;;;;11.7;100;94008.47;;;;
2019/05/21 00:25:15;;;;;;;21.8;14.3;;;;;;;11.7;100;94008.47;;;;
2019/05/21 00:26:16;;;;;;;21.8;14.3;;;;;;;11.7;100;94008.47;;;;
2019/05/21 00:27:17;;;;;;;21.8;14.3;;;;;;;11.7;100;94008.47;;;;
2019/05/21 00:28:18;;;;;;;21.8;14.3;;;;;;;11.7;100;94008.47;;;;
2019/05/21 00:45:06;;;;;;;19.7;12.45;;;;;;;11.73;100;94022.81;;;;
2019/05/21 00:46:08;;;;;;;19.7;12.45;;;;;;;11.73;100;94022.81;;;;
2019/05/21 00:47:09;;;;;;;19.7;12.45;;;;;;;11.73;100;94022.81;;;;
2019/05/21 00:48:10;;;;;;;19.7;12.45;;;;;;;11.73;100;94022.81;;;;
2019/05/21 00:49:12;;;;;;;19.7;12.45;;;;;;;11.73;100;94022.81;;;;
2019/05/21 00:50:13;;;;;;;19.7;12.45;;;;;;;11.73;100;94022.81;;;;
2019/05/21 00:51:14;;;;;;;19.7;12.45;;;;;;;11.73;100;94022.81;;;;
2019/05/21 00:52:15;;;;;;;19.7;12.45;;;;;;;11.73;100;94022.81;;;;
2019/05/21 00:53:16;;;;;;;19.7;12.45;;;;;;;11.73;100;94022.81;;;;
2019/05/21 00:54:17;;;;;;;22.45;14.7;;;;;;;11.64;100;94027.91;;;;
2019/05/21 00:55:18;;;;;;;22.45;14.7;;;;;;;11.64;100;94027.91;;;;
2019/05/21 00:56:19;;;;;;;22.45;14.7;;;;;;;11.64;100;94027.91;;;;
2019/05/21 00:57:20;;;;;;;22.45;14.7;;;;;;;11.64;100;94027.91;;;;
2019/05/21 00:58:21;;;;;;;22.45;14.7;;;;;;;11.64;100;94027.91;;;;
2019/05/21 00:59:22;;;;;;;22.45;14.7;;;;;;;11.64;100;94027.91;;;;
2019/05/21 01:00:23;;;;;;;22.45;14.7;;;;;;;11.64;100;94027.91;;;;
2019/05/21 01:01:25;;;;;;;22.45;14.7;;;;;;;11.64;100;94027.91;;;;
2019/05/21 01:02:26;;;;;;;22.45;14.7;;;;;;;11.64;100;94027.91;;;;
2019/05/21 01:03:27;;;;;;;22.45;14.7;;;;;;;11.64;100;94027.91;;;;
2019/05/21 01:04:28;;;;;;;18.2;12.1;;;;;;;11.66;100;94037.16;;;;
2019/05/21 01:05:29;;;;;;;18.2;12.1;;;;;;;11.66;100;94037.16;;;;
2019/05/21 01:06:31;;;;;;;18.2;12.1;;;;;;;11.66;100;94037.16;;;;
2019/05/21 01:07:32;;;;;;;18.2;12.1;;;;;;;11.66;100;94037.16;;;;
2019/05/21 01:08:33;;;;;;;18.2;12.1;;;;;;;11.66;100;94037.16;;;;
2019/05/21 01:09:34;;;;;;;18.2;12.1;;;;;;;11.66;100;94037.16;;;;
2019/05/21 01:10:35;;;;;;;18.2;12.1;;;;;;;11.66;100;94037.16;;;;
2019/05/21 01:11:37;;;;;;;18.2;12.1;;;;;;;11.66;100;94037.16;;;;
2019/05/21 01:12:38;;;;;;;18.2;12.1;;;;;;;11.66;100;94037.16;;;;
2019/05/21 01:13:39;;;;;;;18.2;12.1;;;;;;;11.66;100;94037.16;;;;
2019/05/21 01:14:40;;;;;;;18.2;12.1;;;;;;;11.66;100;94037.16;;;;
2019/05/21 01:15:41;;;;;;;9.849999;7.55;;;;;;;11.61;100;94037.52;;;;
2019/05/21 01:16:42;;;;;;;9.849999;7.55;;;;;;;11.61;100;94037.52;;;;
2019/05/21 01:17:43;;;;;;;9.849999;7.55;;;;;;;11.61;100;94037.52;;;;
2019/05/21 01:18:45;;;;;;;9.849999;7.55;;;;;;;11.61;100;94037.52;;;;
2019/05/21 01:19:46;;;;;;;9.849999;7.55;;;;;;;11.61;100;94037.52;;;;
2019/05/21 01:20:47;;;;;;;9.849999;7.55;;;;;;;11.61;100;94037.52;;;;
2019/05/21 01:21:48;;;;;;;9.849999;7.55;;;;;;;11.61;100;94037.52;;;;
2019/05/21 01:22:49;;;;;;;9.849999;7.55;;;;;;;11.61;100;94037.52;;;;
2019/05/21 01:23:50;;;;;;;9.849999;7.55;;;;;;;11.61;100;94037.52;;;;
2019/05/21 01:24:51;;;;;;;9.849999;7.55;;;;;;;11.61;100;94037.52;;;;
2019/05/21 01:25:52;;;;;;;5.15;4.65;;;;;;;11.62;100;94043.21;;;;
2019/05/21 01:26:53;;;;;;;5.15;4.65;;;;;;;11.62;100;94043.21;;;;
2019/05/21 01:27:55;;;;;;;5.15;4.65;;;;;;;11.62;100;94043.21;;;;
2019/05/21 01:28:56;;;;;;;5.15;4.65;;;;;;;11.62;100;94043.21;;;;
2019/05/21 01:29:57;;;;;;;5.15;4.65;;;;;;;11.62;100;94043.21;;;;
2019/05/21 01:30:58;;;;;;;5.15;4.65;;;;;;;11.62;100;94043.21;;;;
2019/05/21 01:31:59;;;;;;;5.15;4.65;;;;;;;11.62;100;94043.21;;;;
2019/05/21 01:33:00;;;;;;;5.15;4.65;;;;;;;11.62;100;94043.21;;;;
2019/05/21 01:34:01;;;;;;;5.15;4.65;;;;;;;11.62;100;94043.21;;;;
2019/05/21 01:35:03;;;;;;;5.15;4.65;;;;;;;11.62;100;94043.21;;;;
2019/05/21 01:36:04;;;;;;;5.15;4.65;;;;;;;11.62;100;94043.21;;;;
2019/05/21 01:37:05;;;;;;;4.25;3.85;;;;;;;11.55;100;94051.58;;;;
2019/05/21 01:38:07;;;;;;;4.25;3.85;;;;;;;11.55;100;94051.58;;;;
2019/05/21 01:39:08;;;;;;;4.25;3.85;;;;;;;11.55;100;94051.58;;;;
2019/05/21 01:40:10;;;;;;;4.25;3.85;;;;;;;11.55;100;94051.58;;;;
2019/05/21 01:41:11;;;;;;;4.25;3.85;;;;;;;11.55;100;94051.58;;;;
2019/05/21 01:42:12;;;;;;;4.25;3.85;;;;;;;11.55;100;94051.58;;;;
2019/05/21 01:43:13;;;;;;;4.25;3.85;;;;;;;11.55;100;94051.58;;;;
2019/05/21 01:44:14;;;;;;;4.25;3.85;;;;;;;11.55;100;94051.58;;;;
2019/05/21 01:45:15;;;;;;;4.25;3.85;;;;;;;11.55;100;94051.58;;;;
2019/05/21 01:46:17;;;;;;;4.25;3.85;;;;;;;11.55;100;94051.58;;;;
2019/05/21 01:47:18;;;;;;;5.45;4.4;;;;;;;11.56;100;94055.52;;;;
2019/05/21 01:48:19;;;;;;;5.45;4.4;;;;;;;11.56;100;94055.52;;;;
2019/05/21 01:49:20;;;;;;;5.45;4.4;;;;;;;11.56;100;94055.52;;;;
2019/05/21 01:50:21;;;;;;;5.45;4.4;;;;;;;11.56;100;94055.52;;;;
2019/05/21 01:51:22;;;;;;;5.45;4.4;;;;;;;11.56;100;94055.52;;;;
2019/05/21 01:52:23;;;;;;;5.45;4.4;;;;;;;11.56;100;94055.52;;;;
2019/05/21 01:53:24;;;;;;;5.45;4.4;;;;;;;11.56;100;94055.52;;;;
2019/05/21 01:54:25;;;;;;;5.45;4.4;;;;;;;11.56;100;94055.52;;;;
2019/05/21 01:55:27;;;;;;;5.45;4.4;;;;;;;11.56;100;94055.52;;;;
2019/05/21 01:56:28;;;;;;;5.45;4.4;;;;;;;11.56;100;94055.52;;;;
2019/05/21 01:57:29;;;;;;;4;2.7;;;;;;;11.49;100;94069.28;;;;
2019/05/21 01:58:30;;;;;;;4;2.7;;;;;;;11.49;100;94069.28;;;;
2019/05/21 01:59:31;;;;;;;4;2.7;;;;;;;11.49;100;94069.28;;;;
2019/05/21 02:00:33;;;;;;;4;2.7;;;;;;;11.49;100;94069.28;;;;
2019/05/21 02:01:34;;;;;;;4;2.7;;;;;;;11.49;100;94069.28;;;;
2019/05/21 02:02:35;;;;;;;4;2.7;;;;;;;11.49;100;94069.28;;;;
2019/05/21 02:03:36;;;;;;;4;2.7;;;;;;;11.49;100;94069.28;;;;
2019/05/21 02:04:38;;;;;;;4;2.7;;;;;;;11.49;100;94069.28;;;;
2019/05/21 02:05:39;;;;;;;4;2.7;;;;;;;11.49;100;94069.28;;;;
2019/05/21 02:06:40;;;;;;;4;2.7;;;;;;;11.49;100;94069.28;;;;
2019/05/21 02:07:41;;;;;;;4;2.7;;;;;;;11.49;100;94069.28;;;;
2019/05/21 02:08:42;;;;;;;3.05;2.75;;;;;;;11.47;100;94061.6;;;;
2019/05/21 02:09:59;;;;;;;3.05;2.75;;;;;;;11.47;100;94061.6;;;;
2019/05/21 02:11:00;;;;;;;3.05;2.75;;;;;;;11.47;100;94061.6;;;;
2019/05/21 02:12:02;;;;;;;3.05;2.75;;;;;;;11.47;100;94061.6;;;;
2019/05/21 02:13:03;;;;;;;3.05;2.75;;;;;;;11.47;100;94061.6;;;;
2019/05/21 02:14:04;;;;;;;3.05;2.75;;;;;;;11.47;100;94061.6;;;;
2019/05/21 02:15:05;;;;;;;3.05;2.75;;;;;;;11.47;100;94061.6;;;;
2019/05/21 02:16:06;;;;;;;3.05;2.75;;;;;;;11.47;100;94061.6;;;;
2019/05/21 02:17:07;;;;;;;3.05;2.75;;;;;;;11.47;100;94061.6;;;;
2019/05/21 02:18:08;;;;;;;3.05;2.75;;;;;;;11.47;100;94061.6;;;;
2019/05/21 02:19:10;;;;;;;3.6;2.85;;;;;;;11.35;100;94070.5;;;;
2019/05/21 02:20:11;;;;;;;3.6;2.85;;;;;;;11.35;100;94070.5;;;;
2019/05/21 02:21:12;;;;;;;3.6;2.85;;;;;;;11.35;100;94070.5;;;;
2019/05/21 02:22:13;;;;;;;3.6;2.85;;;;;;;11.35;100;94070.5;;;;
2019/05/21 02:23:14;;;;;;;3.6;2.85;;;;;;;11.35;100;94070.5;;;;
2019/05/21 02:24:15;;;;;;;3.6;2.85;;;;;;;11.35;100;94070.5;;;;
2019/05/21 02:25:17;;;;;;;3.6;2.85;;;;;;;11.35;100;94070.5;;;;
2019/05/21 02:26:18;;;;;;;3.6;2.85;;;;;;;11.35;100;94070.5;;;;
2019/05/21 02:27:19;;;;;;;3.6;2.85;;;;;;;11.35;100;94070.5;;;;
2019/05/21 02:28:20;;;;;;;3.6;2.85;;;;;;;11.35;100;94070.5;;;;
2019/05/21 02:29:21;;;;;;;4.4;2.95;;;;;;;11.31;100;94073.08;;;;
2019/05/21 02:30:22;;;;;;;4.4;2.95;;;;;;;11.31;100;94073.08;;;;
2019/05/21 02:31:23;;;;;;;4.4;2.95;;;;;;;11.31;100;94073.08;;;;
2019/05/21 02:32:24;;;;;;;4.4;2.95;;;;;;;11.31;100;94073.08;;;;
2019/05/21 02:33:26;;;;;;;4.4;2.95;;;;;;;11.31;100;94073.08;;;;
2019/05/21 02:34:27;;;;;;;4.4;2.95;;;;;;;11.31;100;94073.08;;;;
2019/05/21 02:35:28;;;;;;;4.4;2.95;;;;;;;11.31;100;94073.08;;;;
2019/05/21 02:36:29;;;;;;;4.4;2.95;;;;;;;11.31;100;94073.08;;;;
2019/05/21 02:37:30;;;;;;;4.4;2.95;;;;;;;11.31;100;94073.08;;;;
2019/05/21 02:38:32;;;;;;;4.4;2.95;;;;;;;11.31;100;94073.08;;;;
2019/05/21 02:39:33;;;;;;;4.4;2.95;;;;;;;11.31;100;94073.08;;;;
2019/05/21 02:40:34;;;;;;;3.65;2.95;;;;;;;11.22;100;94099.02;;;;
2019/05/21 02:41:35;;;;;;;3.65;2.95;;;;;;;11.22;100;94099.02;;;;
2019/05/21 02:42:36;;;;;;;3.65;2.95;;;;;;;11.22;100;94099.02;;;;
2019/05/21 02:43:37;;;;;;;3.65;2.95;;;;;;;11.22;100;94099.02;;;;
2019/05/21 02:44:39;;;;;;;3.65;2.95;;;;;;;11.22;100;94099.02;;;;
2019/05/21 02:45:40;;;;;;;3.65;2.95;;;;;;;11.22;100;94099.02;;;;
2019/05/21 02:46:41;;;;;;;3.65;2.95;;;;;;;11.22;100;94099.02;;;;
2019/05/21 02:47:42;;;;;;;3.65;2.95;;;;;;;11.22;100;94099.02;;;;
2019/05/21 02:48:43;;;;;;;3.65;2.95;;;;;;;11.22;100;94099.02;;;;
2019/05/21 02:49:44;;;;;;;3.65;2.95;;;;;;;11.22;100;94099.02;;;;
2019/05/21 02:50:45;;;;;;;4.2;3.15;;;;;;;11.19;100;94115.36;;;;
2019/05/21 02:51:46;;;;;;;4.2;3.15;;;;;;;11.19;100;94115.36;;;;
2019/05/21 02:52:47;;;;;;;4.2;3.15;;;;;;;11.19;100;94115.36;;;;
2019/05/21 02:53:48;;;;;;;4.2;3.15;;;;;;;11.19;100;94115.36;;;;
2019/05/21 02:54:50;;;;;;;4.2;3.15;;;;;;;11.19;100;94115.36;;;;
2019/05/21 02:55:51;;;;;;;4.2;3.15;;;;;;;11.19;100;94115.36;;;;
2019/05/21 02:56:52;;;;;;;4.2;3.15;;;;;;;11.19;100;94115.36;;;;
2019/05/21 02:57:53;;;;;;;4.2;3.15;;;;;;;11.19;100;94115.36;;;;
2019/05/21 02:58:54;;;;;;;4.2;3.15;;;;;;;11.19;100;94115.36;;;;
2019/05/21 02:59:59;;;;;;;4.2;3.15;;;;;;;11.19;100;94115.36;;;;
2019/05/21 03:01:11;;;;;;;4.75;3.75;;;;;;;11.08;100;94133.83;;;;
2019/05/21 03:02:21;;;;;;;4.75;3.75;;;;;;;11.08;100;94133.83;;;;
2019/05/21 03:03:25;;;;;;;4.75;3.75;;;;;;;11.08;100;94133.83;;;;
2019/05/21 03:04:27;;;;;;;4.75;3.75;;;;;;;11.08;100;94133.83;;;;
2019/05/21 03:05:28;;;;;;;4.75;3.75;;;;;;;11.08;100;94133.83;;;;
2019/05/21 03:06:29;;;;;;;4.75;3.75;;;;;;;11.08;100;94133.83;;;;
2019/05/21 03:07:30;;;;;;;4.75;3.75;;;;;;;11.08;100;94133.83;;;;
2019/05/21 03:08:31;;;;;;;4.75;3.75;;;;;;;11.08;100;94133.83;;;;
2019/05/21 03:09:32;;;;;;;4.75;3.75;;;;;;;11.08;100;94133.83;;;;
2019/05/21 03:10:33;;;;;;;4.75;3.75;;;;;;;11.08;100;94133.83;;;;
2019/05/21 03:11:34;;;;;;;5.1;4.05;;;;;;;11.06;100;94136.39;;;;
2019/05/21 03:12:35;;;;;;;5.1;4.05;;;;;;;11.06;100;94136.39;;;;
2019/05/21 03:13:36;;;;;;;5.1;4.05;;;;;;;11.06;100;94136.39;;;;
2019/05/21 03:14:37;;;;;;;5.1;4.05;;;;;;;11.06;100;94136.39;;;;
2019/05/21 03:15:38;;;;;;;5.1;4.05;;;;;;;11.06;100;94136.39;;;;
2019/05/21 03:16:39;;;;;;;5.1;4.05;;;;;;;11.06;100;94136.39;;;;
2019/05/21 03:17:40;;;;;;;5.1;4.05;;;;;;;11.06;100;94136.39;;;;
2019/05/21 03:18:42;;;;;;;5.1;4.05;;;;;;;11.06;100;94136.39;;;;
2019/05/21 03:19:43;;;;;;;5.1;4.05;;;;;;;11.06;100;94136.39;;;;
2019/05/21 03:20:44;;;;;;;5.1;4.05;;;;;;;11.06;100;94136.39;;;;
2019/05/21 03:21:45;;;;;;;5.1;4.05;;;;;;;11.06;100;94136.39;;;;
2019/05/21 03:22:46;;;;;;;4;3.55;;;;;;;10.96;100;94151.23;;;;
2019/05/21 03:23:47;;;;;;;4;3.55;;;;;;;10.96;100;94151.23;;;;
2019/05/21 03:24:48;;;;;;;4;3.55;;;;;;;10.96;100;94151.23;;;;
2019/05/21 03:25:49;;;;;;;4;3.55;;;;;;;10.96;100;94151.23;;;;
2019/05/21 03:26:50;;;;;;;4;3.55;;;;;;;10.96;100;94151.23;;;;
2019/05/21 03:27:51;;;;;;;4;3.55;;;;;;;10.96;100;94151.23;;;;
2019/05/21 03:28:52;;;;;;;4;3.55;;;;;;;10.96;100;94151.23;;;;
2019/05/21 03:29:54;;;;;;;4;3.55;;;;;;;10.96;100;94151.23;;;;
2019/05/21 03:30:55;;;;;;;4;3.55;;;;;;;10.96;100;94151.23;;;;
2019/05/21 03:31:56;;;;;;;4;3.55;;;;;;;10.96;100;94151.23;;;;
2019/05/21 03:32:57;;;;;;;4.3;3.4;;;;;;;10.92;100;94146.23;;;;
2019/05/21 03:33:58;;;;;;;4.3;3.4;;;;;;;10.92;100;94146.23;;;;
2019/05/21 03:34:59;;;;;;;4.3;3.4;;;;;;;10.92;100;94146.23;;;;
2019/05/21 03:36:00;;;;;;;4.3;3.4;;;;;;;10.92;100;94146.23;;;;
2019/05/21 03:37:01;;;;;;;4.3;3.4;;;;;;;10.92;100;94146.23;;;;
2019/05/21 03:38:02;;;;;;;4.3;3.4;;;;;;;10.92;100;94146.23;;;;
2019/05/21 03:39:04;;;;;;;4.3;3.4;;;;;;;10.92;100;94146.23;;;;
2019/05/21 03:40:05;;;;;;;4.3;3.4;;;;;;;10.92;100;94146.23;;;;
2019/05/21 03:41:06;;;;;;;4.3;3.4;;;;;;;10.92;100;94146.23;;;;
2019/05/21 03:42:07;;;;;;;4.3;3.4;;;;;;;10.92;100;94146.23;;;;
2019/05/21 03:43:08;;;;;;;4.3;3.4;;;;;;;10.92;100;94146.23;;;;
2019/05/21 03:44:09;;;;;;;4.400001;3.45;;;;;;;10.83;100;94170.21;;;;
2019/05/21 03:45:10;;;;;;;4.400001;3.45;;;;;;;10.83;100;94170.21;;;;
2019/05/21 03:46:11;;;;;;;4.400001;3.45;;;;;;;10.83;100;94170.21;;;;
2019/05/21 03:47:12;;;;;;;4.400001;3.45;;;;;;;10.83;100;94170.21;;;;
2019/05/21 03:48:13;;;;;;;4.400001;3.45;;;;;;;10.83;100;94170.21;;;;
2019/05/21 03:49:14;;;;;;;4.400001;3.45;;;;;;;10.83;100;94170.21;;;;
2019/05/21 03:50:15;;;;;;;4.400001;3.45;;;;;;;10.83;100;94170.21;;;;
2019/05/21 03:51:17;;;;;;;4.400001;3.45;;;;;;;10.83;100;94170.21;;;;
2019/05/21 03:52:18;;;;;;;4.400001;3.45;;;;;;;10.83;100;94170.21;;;;
2019/05/21 03:53:19;;;;;;;4.400001;3.45;;;;;;;10.83;100;94170.21;;;;
2019/05/21 03:54:20;;;;;;;5.8;3.65;;;;;;;10.84;100;94179.96;;;;
2019/05/21 03:55:21;;;;;;;5.8;3.65;;;;;;;10.84;100;94179.96;;;;
2019/05/21 03:56:22;;;;;;;5.8;3.65;;;;;;;10.84;100;94179.96;;;;
2019/05/21 03:57:23;;;;;;;5.8;3.65;;;;;;;10.84;100;94179.96;;;;
2019/05/21 03:58:24;;;;;;;5.8;3.65;;;;;;;10.84;100;94179.96;;;;
2019/05/21 03:59:25;;;;;;;5.8;3.65;;;;;;;10.84;100;94179.96;;;;
2019/05/21 04:00:26;;;;;;;5.8;3.65;;;;;;;10.84;100;94179.96;;;;
2019/05/21 04:01:27;;;;;;;5.8;3.65;;;;;;;10.84;100;94179.96;;;;
2019/05/21 04:02:28;;;;;;;5.8;3.65;;;;;;;10.84;100;94179.96;;;;
2019/05/21 04:03:29;;;;;;;5.8;3.65;;;;;;;10.84;100;94179.96;;;;
2019/05/21 04:04:31;;;;;;;4.5;3.7;;;;;;;10.78;100;94183.7;;;;
2019/05/21 04:05:32;;;;;;;4.5;3.7;;;;;;;10.78;100;94183.7;;;;
2019/05/21 04:06:33;;;;;;;4.5;3.7;;;;;;;10.78;100;94183.7;;;;
2019/05/21 04:07:34;;;;;;;4.5;3.7;;;;;;;10.78;100;94183.7;;;;
2019/05/21 04:08:35;;;;;;;4.5;3.7;;;;;;;10.78;100;94183.7;;;;
2019/05/21 04:09:36;;;;;;;4.5;3.7;;;;;;;10.78;100;94183.7;;;;
2019/05/21 04:10:37;;;;;;;4.5;3.7;;;;;;;10.78;100;94183.7;;;;
2019/05/21 04:11:38;;;;;;;4.5;3.7;;;;;;;10.78;100;94183.7;;;;
2019/05/21 04:12:39;;;;;;;4.5;3.7;;;;;;;10.78;100;94183.7;;;;
2019/05/21 04:13:40;;;;;;;4.5;3.7;;;;;;;10.78;100;94183.7;;;;
2019/05/21 04:14:45;;;;;;;4.5;3.7;;;;;;;10.78;100;94183.7;;;;
2019/05/21 04:16:01;;;;;;;5.55;4;;;;;;;10.78;100;94200.43;;;;
2019/05/21 04:17:09;;;;;;;5.55;4;;;;;;;10.78;100;94200.43;;;;
2019/05/21 04:18:14;;;;;;;5.55;4;;;;;;;10.78;100;94200.43;;;;
2019/05/21 04:19:19;;;;;;;5.55;4;;;;;;;10.78;100;94200.43;;;;
2019/05/21 04:20:20;;;;;;;5.55;4;;;;;;;10.78;100;94200.43;;;;
2019/05/21 04:21:21;;;;;;;5.55;4;;;;;;;10.78;100;94200.43;;;;
2019/05/21 04:22:22;;;;;;;5.55;4;;;;;;;10.78;100;94200.43;;;;
2019/05/21 04:23:23;;;;;;;5.55;4;;;;;;;10.78;100;94200.43;;;;
2019/05/21 04:24:25;;;;;;;5.55;4;;;;;;;10.78;100;94200.43;;;;
2019/05/21 04:25:26;;;;;;;5.55;4;;;;;;;10.78;100;94200.43;;;;
2019/05/21 04:26:27;;;;;;;4.6;3.7;;;;;;;10.75;100;94202.31;;;;
2019/05/21 04:27:28;;;;;;;4.6;3.7;;;;;;;10.75;100;94202.31;;;;
2019/05/21 04:28:29;;;;;;;4.6;3.7;;;;;;;10.75;100;94202.31;;;;
2019/05/21 04:29:30;;;;;;;4.6;3.7;;;;;;;10.75;100;94202.31;;;;
2019/05/21 04:30:31;;;;;;;4.6;3.7;;;;;;;10.75;100;94202.31;;;;
2019/05/21 04:31:32;;;;;;;4.6;3.7;;;;;;;10.75;100;94202.31;;;;
2019/05/21 04:32:33;;;;;;;4.6;3.7;;;;;;;10.75;100;94202.31;;;;
2019/05/21 04:33:34;;;;;;;4.6;3.7;;;;;;;10.75;100;94202.31;;;;
2019/05/21 04:34:35;;;;;;;4.6;3.7;;;;;;;10.75;100;94202.31;;;;
2019/05/21 04:35:37;;;;;;;4.6;3.7;;;;;;;10.75;100;94202.31;;;;
2019/05/21 04:36:38;;;;;;;4.6;3.55;;;;;;;10.75;100;94217.16;;;;
2019/05/21 04:37:39;;;;;;;4.6;3.55;;;;;;;10.75;100;94217.16;;;;
2019/05/21 04:38:40;;;;;;;4.6;3.55;;;;;;;10.75;100;94217.16;;;;
2019/05/21 04:39:41;;;;;;;4.6;3.55;;;;;;;10.75;100;94217.16;;;;
2019/05/21 04:40:42;;;;;;;4.6;3.55;;;;;;;10.75;100;94217.16;;;;
2019/05/21 04:41:43;;;;;;;4.6;3.55;;;;;;;10.75;100;94217.16;;;;
2019/05/21 04:42:44;;;;;;;4.6;3.55;;;;;;;10.75;100;94217.16;;;;
2019/05/21 04:43:45;;;;;;;4.6;3.55;;;;;;;10.75;100;94217.16;;;;
2019/05/21 04:44:46;;;;;;;4.6;3.55;;;;;;;10.75;100;94217.16;;;;
2019/05/21 04:45:48;;;;;;;4.6;3.55;;;;;;;10.75;100;94217.16;;;;
2019/05/21 04:46:49;;;;;;;4.6;3.55;;;;;;;10.75;100;94217.16;;;;
2019/05/21 04:47:50;;;;;;;5.25;3.85;;;;;;;10.69;100;94228.47;;;;
2019/05/21 04:48:51;;;;;;;5.25;3.85;;;;;;;10.69;100;94228.47;;;;
2019/05/21 04:49:52;;;;;;;5.25;3.85;;;;;;;10.69;100;94228.47;;;;
2019/05/21 04:50:53;;;;;;;5.25;3.85;;;;;;;10.69;100;94228.47;;;;
2019/05/21 04:51:54;;;;;;;5.25;3.85;;;;;;;10.69;100;94228.47;;;;
2019/05/21 04:52:55;;;;;;;5.25;3.85;;;;;;;10.69;100;94228.47;;;;
2019/05/21 04:53:56;;;;;;;5.25;3.85;;;;;;;10.69;100;94228.47;;;;
2019/05/21 04:54:57;;;;;;;5.25;3.85;;;;;;;10.69;100;94228.47;;;;
2019/05/21 04:55:58;;;;;;;5.25;3.85;;;;;;;10.69;100;94228.47;;;;
2019/05/21 04:56:59;;;;;;;5.25;3.85;;;;;;;10.69;100;94228.47;;;;
2019/05/21 04:58:00;;;;;;;5.65;4.400001;;;;;;;10.7;100;94227.42;;;;
2019/05/21 04:59:01;;;;;;;5.65;4.400001;;;;;;;10.7;100;94227.42;;;;
2019/05/21 05:00:03;;;;;;;5.65;4.400001;;;;;;;10.7;100;94227.42;;;;
2019/05/21 05:01:04;;;;;;;5.65;4.400001;;;;;;;10.7;100;94227.42;;;;
2019/05/21 05:02:05;;;;;;;5.65;4.400001;;;;;;;10.7;100;94227.42;;;;
2019/05/21 05:03:07;;;;;;;5.65;4.400001;;;;;;;10.7;100;94227.42;;;;
2019/05/21 05:04:08;;;;;;;5.65;4.400001;;;;;;;10.7;100;94227.42;;;;
2019/05/21 05:05:09;;;;;;;5.65;4.400001;;;;;;;10.7;100;94227.42;;;;
2019/05/21 05:06:10;;;;;;;5.65;4.400001;;;;;;;10.7;100;94227.42;;;;
2019/05/21 05:07:11;;;;;;;5.65;4.400001;;;;;;;10.7;100;94227.42;;;;
2019/05/21 05:08:12;;;;;;;5.55;3.95;;;;;;;10.69;100;94236.16;;;;
2019/05/21 05:09:13;;;;;;;5.55;3.95;;;;;;;10.69;100;94236.16;;;;
2019/05/21 05:10:14;;;;;;;5.55;3.95;;;;;;;10.69;100;94236.16;;;;
2019/05/21 05:11:15;;;;;;;5.55;3.95;;;;;;;10.69;100;94236.16;;;;
2019/05/21 05:12:16;;;;;;;5.55;3.95;;;;;;;10.69;100;94236.16;;;;
2019/05/21 05:13:18;;;;;;;5.55;3.95;;;;;;;10.69;100;94236.16;;;;
2019/05/21 05:14:19;;;;;;;5.55;3.95;;;;;;;10.69;100;94236.16;;;;
2019/05/21 05:15:20;;;;;;;5.55;3.95;;;;;;;10.69;100;94236.16;;;;
2019/05/21 05:16:21;;;;;;;5.55;3.95;;;;;;;10.69;100;94236.16;;;;
2019/05/21 05:17:22;;;;;;;5.55;3.95;;;;;;;10.69;100;94236.16;;;;
2019/05/21 05:18:23;;;;;;;5.55;3.95;;;;;;;10.69;100;94236.16;;;;
2019/05/21 05:19:24;;;;;;;4.199999;3.45;;;;;;;10.72;100;94245.11;;;;
2019/05/21 05:20:25;;;;;;;4.199999;3.45;;;;;;;10.72;100;94245.11;;;;
2019/05/21 05:21:26;;;;;;;4.199999;3.45;;;;;;;10.72;100;94245.11;;;;
2019/05/21 05:22:27;;;;;;;4.199999;3.45;;;;;;;10.72;100;94245.11;;;;
2019/05/21 05:23:28;;;;;;;4.199999;3.45;;;;;;;10.72;100;94245.11;;;;
2019/05/21 05:24:29;;;;;;;4.199999;3.45;;;;;;;10.72;100;94245.11;;;;
2019/05/21 05:25:30;;;;;;;4.199999;3.45;;;;;;;10.72;100;94245.11;;;;
2019/05/21 05:26:31;;;;;;;4.199999;3.45;;;;;;;10.72;100;94245.11;;;;
2019/05/21 05:27:32;;;;;;;4.199999;3.45;;;;;;;10.72;100;94245.11;;;;
2019/05/21 05:28:34;;;;;;;4.199999;3.45;;;;;;;10.72;100;94245.11;;;;
2019/05/21 05:29:35;;;;;;;5.699999;3.65;;;;;;;10.67;100;94252.62;;;;
2019/05/21 05:30:36;;;;;;;5.699999;3.65;;;;;;;10.67;100;94252.62;;;;
2019/05/21 05:31:37;;;;;;;5.699999;3.65;;;;;;;10.67;100;94252.62;;;;
2019/05/21 05:32:38;;;;;;;5.699999;3.65;;;;;;;10.67;100;94252.62;;;;
2019/05/21 05:33:39;;;;;;;5.699999;3.65;;;;;;;10.67;100;94252.62;;;;
2019/05/21 05:34:40;;;;;;;5.699999;3.65;;;;;;;10.67;100;94252.62;;;;
2019/05/21 05:35:41;;;;;;;5.699999;3.65;;;;;;;10.67;100;94252.62;;;;
2019/05/21 05:36:42;;;;;;;5.699999;3.65;;;;;;;10.67;100;94252.62;;;;
2019/05/21 05:37:43;;;;;;;5.699999;3.65;;;;;;;10.67;100;94252.62;;;;
2019/05/21 05:38:44;;;;;;;5.699999;3.65;;;;;;;10.67;100;94252.62;;;;
2019/05/21 05:39:45;;;;;;;5.699999;3.65;;;;;;;10.67;100;94252.62;;;;
2019/05/21 05:40:46;;;;;;;4.95;3.5;;;;;;;10.71;100;94258.72;;;;
2019/05/21 05:41:48;;;;;;;4.95;3.5;;;;;;;10.71;100;94258.72;;;;
2019/05/21 05:42:49;;;;;;;4.95;3.5;;;;;;;10.71;100;94258.72;;;;
2019/05/21 05:43:50;;;;;;;4.95;3.5;;;;;;;10.71;100;94258.72;;;;
2019/05/21 05:44:51;;;;;;;4.95;3.5;;;;;;;10.71;100;94258.72;;;;
2019/05/21 05:45:52;;;;;;;4.95;3.5;;;;;;;10.71;100;94258.72;;;;
2019/05/21 05:46:53;;;;;;;4.95;3.5;;;;;;;10.71;100;94258.72;;;;
2019/05/21 05:47:54;;;;;;;4.95;3.5;;;;;;;10.71;100;94258.72;;;;
2019/05/21 05:49:01;;;;;;;4.95;3.5;;;;;;;10.71;100;94258.72;;;;
2019/05/21 05:50:04;;;;;;;4.95;3.5;;;;;;;10.71;100;94258.72;;;;
2019/05/21 05:51:06;;;;;;;4.95;3.5;;;;;;;10.71;100;94258.72;;;;
2019/05/21 05:52:07;;;;;;;4.95;3.5;;;;;;;10.71;100;94258.72;;;;
2019/05/21 05:53:08;;;;;;;4.95;3.5;;;;;;;10.71;100;94258.72;;;;
2019/05/21 05:54:09;;;;;;;4.95;3.5;;;;;;;10.71;100;94258.72;;;;
2019/05/21 05:55:11;;;;;;;4.95;3.5;;;;;;;10.71;100;94258.72;;;;
2019/05/21 05:56:12;;;;;;;4.95;3.5;;;;;;;10.71;100;94258.72;;;;
2019/05/21 05:57:13;;;;;;;4.95;3.5;;;;;;;10.71;100;94258.72;;;;
2019/05/21 05:58:14;;;;;;;4.95;3.5;;;;;;;10.71;100;94258.72;;;;
2019/05/21 05:59:15;;;;;;;4.95;3.5;;;;;;;10.71;100;94258.72;;;;
2019/05/21 06:00:16;;;;;;;4.95;3.5;;;;;;;10.71;100;94258.72;;;;
2019/05/21 06:01:17;;;;;;;3.7;3.1;;;;;;;10.88;100;94284.2;;;;
2019/05/21 06:02:18;;;;;;;3.7;3.1;;;;;;;10.88;100;94284.2;;;;
2019/05/21 06:03:19;;;;;;;3.7;3.1;;;;;;;10.88;100;94284.2;;;;
2019/05/21 06:04:21;;;;;;;3.7;3.1;;;;;;;10.88;100;94284.2;;;;
2019/05/21 06:05:22;;;;;;;3.7;3.1;;;;;;;10.88;100;94284.2;;;;
2019/05/21 06:06:23;;;;;;;3.7;3.1;;;;;;;10.88;100;94284.2;;;;
2019/05/21 06:07:24;;;;;;;3.7;3.1;;;;;;;10.88;100;94284.2;;;;
2019/05/21 06:08:25;;;;;;;3.7;3.1;;;;;;;10.88;100;94284.2;;;;
2019/05/21 06:09:26;;;;;;;3.7;3.1;;;;;;;10.88;100;94284.2;;;;
2019/05/21 06:10:27;;;;;;;3.7;3.1;;;;;;;10.88;100;94284.2;;;;
2019/05/21 06:11:28;;;;;;;3.7;3.1;;;;;;;10.88;100;94284.2;;;;
2019/05/21 06:12:29;;;;;;;2.5;2.3;;;;;;;11;100;94290.08;;;;
2019/05/21 06:13:30;;;;;;;2.5;2.3;;;;;;;11;100;94290.08;;;;
2019/05/21 06:14:32;;;;;;;2.5;2.3;;;;;;;11;100;94290.08;;;;
2019/05/21 06:15:33;;;;;;;2.5;2.3;;;;;;;11;100;94290.08;;;;
2019/05/21 06:16:34;;;;;;;2.5;2.3;;;;;;;11;100;94290.08;;;;
2019/05/21 06:17:35;;;;;;;2.5;2.3;;;;;;;11;100;94290.08;;;;
2019/05/21 06:18:36;;;;;;;2.5;2.3;;;;;;;11;100;94290.08;;;;
2019/05/21 06:19:37;;;;;;;2.5;2.3;;;;;;;11;100;94290.08;;;;
2019/05/21 06:20:38;;;;;;;2.5;2.3;;;;;;;11;100;94290.08;;;;
2019/05/21 06:21:39;;;;;;;2.5;2.3;;;;;;;11;100;94290.08;;;;
2019/05/21 06:22:40;;;;;;;2;1.8;;;;;;;11.17;100;94306.08;;;;
2019/05/21 06:23:41;;;;;;;2;1.8;;;;;;;11.17;100;94306.08;;;;
2019/05/21 06:24:42;;;;;;;2;1.8;;;;;;;11.17;100;94306.08;;;;
2019/05/21 06:25:44;;;;;;;2;1.8;;;;;;;11.17;100;94306.08;;;;
2019/05/21 06:26:45;;;;;;;2;1.8;;;;;;;11.17;100;94306.08;;;;
2019/05/21 06:27:46;;;;;;;2;1.8;;;;;;;11.17;100;94306.08;;;;
2019/05/21 06:28:47;;;;;;;2;1.8;;;;;;;11.17;100;94306.08;;;;
2019/05/21 06:29:48;;;;;;;2;1.8;;;;;;;11.17;100;94306.08;;;;
2019/05/21 06:30:49;;;;;;;2;1.8;;;;;;;11.17;100;94306.08;;;;
2019/05/21 06:31:50;;;;;;;2;1.8;;;;;;;11.17;100;94306.08;;;;